Time;durP1;ratioP1;P1;durP2;ratioP2;P2;SDS_P1;SDS_P2;PMS_P1;PMS_P2;Temp;Humidity;BMP_temperature;BMP_pressure;BME280_temperature;BME280_humidity;BME280_pressure;Samples;Min_cycle;Max_cycle;Signal;HPM_P1;HPM_P2
2022/05/14 00:01:14;;;;;;;5.30;4.17;;;;;;;19.31;58.00;98866.28;5109747;28;20205;-81
2022/05/14 00:03:41;;;;;;;8.93;4.80;;;;;;;19.35;57.75;98867.56;5109662;28;20249;-81
2022/05/14 00:06:13;;;;;;;6.30;4.50;;;;;;;19.32;57.70;98865.31;5109760;28;20201;-81
2022/05/14 00:08:40;;;;;;;7.00;4.50;;;;;;;19.34;58.14;98862.53;5109474;28;20634;-81
2022/05/14 00:13:54;;;;;;;7.67;4.77;;;;;;;19.30;58.39;98861.28;5109203;28;20236;-81
2022/05/14 00:16:23;;;;;;;6.77;4.47;;;;;;;19.22;58.06;98859.53;5109560;28;20206;-81
2022/05/14 00:18:51;;;;;;;8.60;4.70;;;;;;;19.19;58.56;98858.09;5109266;28;20228;-81
2022/05/14 00:21:19;;;;;;;8.50;4.50;;;;;;;19.21;58.67;98848.38;5109376;28;20197;-81
2022/05/14 00:23:46;;;;;;;6.13;4.50;;;;;;;19.18;58.84;98848.72;5109093;28;20216;-81
2022/05/14 00:26:13;;;;;;;6.40;4.77;;;;;;;19.14;58.65;98841.44;5109256;28;20201;-81
2022/05/14 00:28:40;;;;;;;6.30;4.93;;;;;;;19.11;58.39;98840.03;5109162;28;20225;-81
2022/05/14 00:31:09;;;;;;;5.80;4.50;;;;;;;19.08;58.58;98837.78;5109288;28;20290;-81
2022/05/14 00:33:36;;;;;;;11.10;4.87;;;;;;;19.07;58.80;98843.94;5108988;28;20238;-81
2022/05/14 00:36:03;;;;;;;7.37;5.10;;;;;;;19.06;58.63;98844.13;5109208;28;20205;-81
2022/05/14 00:38:30;;;;;;;6.23;4.70;;;;;;;19.04;59.33;98835.69;5109411;28;20251;-81
2022/05/14 00:41:00;;;;;;;8.27;4.87;;;;;;;19.02;59.43;98833.25;5109137;28;20198;-81
2022/05/14 00:43:27;;;;;;;7.40;4.90;;;;;;;19.00;59.64;98827.47;5108762;28;20284;-81
2022/05/14 00:45:57;;;;;;;7.93;5.00;;;;;;;18.94;59.03;98830.75;5109025;28;20205;-81
2022/05/14 00:48:30;;;;;;;6.27;4.40;;;;;;;18.89;59.30;98833.84;5109146;28;20724;-81
2022/05/14 00:50:58;;;;;;;10.23;4.97;;;;;;;18.86;59.53;98839.34;5108932;28;20210;-81
2022/05/14 00:53:31;;;;;;;7.83;4.87;;;;;;;18.78;59.94;98837.59;5108983;28;20240;-80
2022/05/14 00:56:02;;;;;;;8.40;4.97;;;;;;;18.81;60.10;98835.66;5109269;28;20196;-81
2022/05/14 00:58:35;;;;;;;8.03;4.57;;;;;;;18.75;60.25;98831.97;5109396;28;20234;-81
2022/05/14 01:01:02;;;;;;;6.77;4.83;;;;;;;18.70;60.77;98840.22;5108930;28;20654;-81
2022/05/14 01:03:31;;;;;;;7.33;5.13;;;;;;;18.69;60.64;98838.59;5108849;28;20252;-80
2022/05/14 01:06:00;;;;;;;7.43;5.10;;;;;;;18.68;60.35;98837.00;5108592;28;20211;-80
2022/05/14 01:08:29;;;;;;;9.70;5.40;;;;;;;18.67;60.62;98835.34;5108892;28;20251;-81
2022/05/14 01:10:56;;;;;;;9.77;5.53;;;;;;;18.70;60.68;98826.44;5108734;28;20201;-81
2022/05/14 01:13:23;;;;;;;7.73;5.20;;;;;;;18.70;60.96;98823.84;5109084;28;20240;-80
2022/05/14 01:15:53;;;;;;;7.37;5.03;;;;;;;18.69;61.58;98824.84;5108693;28;20195;-81
2022/05/14 01:18:22;;;;;;;6.83;5.20;;;;;;;18.65;61.62;98829.56;5108687;28;20215;-81
2022/05/14 01:20:54;;;;;;;9.70;5.30;;;;;;;18.66;60.96;98828.56;5108657;28;20207;-81
2022/05/14 01:23:32;;;;;;;7.10;5.40;;;;;;;18.64;61.53;98835.69;5112503;28;20224;-80
2022/05/14 01:26:30;;;;;;;6.60;5.07;;;;;;;18.70;61.33;98834.22;5112704;27;20615;-81
2022/05/14 01:28:58;;;;;;;9.30;5.17;;;;;;;18.74;61.19;98825.19;5112351;28;20225;-81
2022/05/14 01:31:27;;;;;;;6.83;5.30;;;;;;;18.72;61.66;98833.06;5112636;27;20204;-81
2022/05/14 01:33:54;;;;;;;9.47;5.13;;;;;;;18.71;61.46;98830.66;5112146;28;20232;-81
2022/05/14 01:36:22;;;;;;;7.63;5.47;;;;;;;18.71;61.86;98831.47;5112343;28;20207;-81
2022/05/14 01:38:48;;;;;;;8.40;5.50;;;;;;;18.69;62.13;98833.41;5112238;27;20219;-81
2022/05/14 01:41:17;;;;;;;12.73;5.43;;;;;;;18.70;62.22;98824.69;5112526;28;20645;-81
2022/05/14 01:43:44;;;;;;;7.87;5.10;;;;;;;18.66;62.59;98828.56;5112102;28;20227;-80
2022/05/14 01:46:10;;;;;;;10.10;5.57;;;;;;;18.61;62.92;98820.50;5112194;28;20662;-80
2022/05/14 01:48:37;;;;;;;9.90;5.50;;;;;;;18.63;63.03;98828.91;5112359;27;20227;-80
2022/05/14 01:51:04;;;;;;;6.87;5.70;;;;;;;18.62;63.78;98822.13;5111999;28;20208;-80
2022/05/14 01:53:31;;;;;;;9.60;5.67;;;;;;;18.59;63.58;98817.28;5111986;28;20602;-80
2022/05/14 01:55:58;;;;;;;6.87;5.57;;;;;;;18.50;64.07;98820.88;5112141;28;20230;-80
2022/05/14 01:58:39;;;;;;;8.00;5.20;;;;;;;18.50;64.23;98823.44;5111821;28;20222;-81
2022/05/14 02:01:11;;;;;;;7.57;5.40;;;;;;;18.54;64.04;98829.94;5112193;28;20667;-80
2022/05/14 02:03:38;;;;;;;7.27;5.53;;;;;;;18.52;63.24;98821.50;5111785;28;20228;-80
2022/05/14 02:06:06;;;;;;;7.03;5.10;;;;;;;18.60;64.21;98818.88;5112216;28;20608;-80
2022/05/14 02:08:33;;;;;;;7.90;5.17;;;;;;;18.55;64.15;98816.00;5111441;28;20744;-80
2022/05/14 02:11:00;;;;;;;6.20;5.40;;;;;;;18.55;64.48;98811.63;5111700;28;20721;-80
2022/05/14 02:13:29;;;;;;;7.80;5.53;;;;;;;18.51;64.89;98819.91;5111408;28;20238;-80
2022/05/14 02:15:57;;;;;;;5.77;5.13;;;;;;;18.56;64.40;98807.28;5111787;28;20242;-81
2022/05/14 02:18:24;;;;;;;6.63;5.30;;;;;;;18.60;63.83;98812.91;5111337;28;20226;-80
2022/05/14 02:20:51;;;;;;;8.67;5.40;;;;;;;18.52;64.60;98811.97;5111663;28;20205;-80
2022/05/14 02:23:18;;;;;;;8.80;5.50;;;;;;;18.46;64.44;98820.41;5111555;28;20738;-80
2022/05/14 02:25:45;;;;;;;7.70;5.47;;;;;;;18.51;64.80;98814.72;5111401;28;20203;-80
2022/05/14 02:28:12;;;;;;;6.97;5.73;;;;;;;18.50;65.04;98810.50;5111231;28;20211;-80
2022/05/14 02:30:40;;;;;;;6.60;5.73;;;;;;;18.51;65.78;98810.34;5111309;28;20200;-80
2022/05/14 02:33:07;;;;;;;8.13;6.03;;;;;;;18.55;66.85;98805.63;5110963;28;20238;-81
2022/05/14 02:35:34;;;;;;;7.70;6.03;;;;;;;18.59;66.97;98811.28;5111226;28;20207;-80
2022/05/14 02:38:01;;;;;;;9.83;5.83;;;;;;;18.60;69.37;98813.72;5111288;28;20654;-81
2022/05/14 02:40:29;;;;;;;8.70;5.80;;;;;;;18.55;69.58;98803.84;5110976;28;20219;-79
2022/05/14 02:42:56;;;;;;;12.00;5.87;;;;;;;18.50;71.16;98798.41;5110983;28;20331;-80
2022/05/14 02:45:23;;;;;;;10.70;6.40;;;;;;;18.45;70.37;98789.50;5111556;28;20225;-82
2022/05/14 02:47:52;;;;;;;8.43;6.07;;;;;;;18.44;71.36;98787.88;5111169;28;20217;-81
2022/05/14 02:50:19;;;;;;;7.57;5.77;;;;;;;18.41;70.22;98788.22;5110980;28;20222;-82
2022/05/14 02:52:46;;;;;;;7.73;6.20;;;;;;;18.31;70.06;98789.22;5111057;28;20225;-80
2022/05/14 02:55:13;;;;;;;7.73;6.10;;;;;;;18.34;70.67;98788.09;5110700;28;20687;-82
2022/05/14 02:57:41;;;;;;;10.63;6.10;;;;;;;18.28;70.84;98794.75;5111082;27;20226;-82
2022/05/14 03:00:11;;;;;;;8.80;5.70;;;;;;;18.16;71.62;98790.91;5111016;28;20677;-81
2022/05/14 03:02:38;;;;;;;7.33;6.13;;;;;;;18.13;72.08;98796.41;5110548;28;20255;-81
2022/05/14 03:05:07;;;;;;;7.97;6.07;;;;;;;18.05;72.08;98799.03;5110746;28;20587;-81
2022/05/14 03:07:34;;;;;;;6.83;5.97;;;;;;;18.08;72.08;98803.88;5110782;28;20215;-80
2022/05/14 03:10:01;;;;;;;7.53;5.93;;;;;;;18.04;71.76;98782.69;5110534;28;20199;-82
2022/05/14 03:12:28;;;;;;;11.60;5.73;;;;;;;18.04;70.21;98798.22;5110701;28;20655;-82
2022/05/14 03:14:54;;;;;;;8.73;5.87;;;;;;;18.05;70.16;98793.84;5110315;28;20237;-81
2022/05/14 03:17:22;;;;;;;8.57;6.20;;;;;;;18.07;70.00;98786.75;5110533;28;20727;-82
2022/05/14 03:19:49;;;;;;;7.13;5.80;;;;;;;18.04;71.28;98792.25;5110303;28;20745;-80
2022/05/14 03:22:18;;;;;;;7.57;5.93;;;;;;;18.03;71.82;98795.78;5110378;28;20656;-81
2022/05/14 03:24:44;;;;;;;9.20;6.50;;;;;;;18.03;71.54;98793.19;5110435;28;20630;-82
2022/05/14 03:27:12;;;;;;;9.47;6.47;;;;;;;18.02;72.03;98796.78;5110073;28;20226;-82
2022/05/14 03:29:40;;;;;;;8.10;6.23;;;;;;;18.05;71.68;98802.41;5110394;28;20640;-81
2022/05/14 03:32:08;;;;;;;8.33;5.97;;;;;;;18.07;71.74;98804.84;5109882;28;20325;-81
2022/05/14 03:34:36;;;;;;;8.53;6.00;;;;;;;17.99;71.39;98808.25;5110103;28;20561;-81
2022/05/14 03:37:03;;;;;;;9.10;6.13;;;;;;;18.04;73.02;98807.78;5109961;28;20658;-82
2022/05/14 03:39:31;;;;;;;7.70;5.97;;;;;;;18.01;72.17;98805.50;5110038;28;20706;-81
2022/05/14 03:41:58;;;;;;;8.47;6.50;;;;;;;17.96;72.60;98806.00;5109835;28;20205;-82
2022/05/14 03:44:25;;;;;;;11.40;6.70;;;;;;;17.93;72.02;98821.03;5109313;28;20263;-81
2022/05/14 03:46:52;;;;;;;7.53;6.00;;;;;;;17.99;73.04;98812.63;5109882;28;20222;-81
2022/05/14 03:49:19;;;;;;;9.13;6.27;;;;;;;18.01;71.66;98828.78;5109840;28;20198;-81
2022/05/14 03:51:46;;;;;;;9.47;6.37;;;;;;;18.07;72.34;98828.13;5109271;28;20640;-81
2022/05/14 03:54:13;;;;;;;7.90;6.07;;;;;;;18.14;72.48;98834.25;5109864;28;20230;-82
2022/05/14 03:56:41;;;;;;;9.80;6.10;;;;;;;18.22;72.42;98831.66;5109741;28;20659;-81
2022/05/14 03:59:08;;;;;;;8.33;6.20;;;;;;;18.18;72.51;98837.31;5109918;28;20204;-81
2022/05/14 04:01:35;;;;;;;9.30;6.50;;;;;;;18.27;72.46;98839.72;5109526;28;20202;-81
2022/05/14 04:04:02;;;;;;;9.33;6.53;;;;;;;18.30;72.08;98844.56;5109466;28;20228;-81
2022/05/14 04:06:29;;;;;;;8.43;6.17;;;;;;;18.29;72.37;98848.09;5109592;28;20243;-81
2022/05/14 04:08:56;;;;;;;7.77;5.80;;;;;;;18.32;71.70;98850.41;5109282;28;20251;-81
2022/05/14 04:11:23;;;;;;;9.47;6.37;;;;;;;18.31;71.23;98856.53;5109473;28;20207;-81
2022/05/14 04:13:51;;;;;;;8.83;6.10;;;;;;;18.32;71.68;98858.16;5109280;28;20620;-81
2022/05/14 04:16:18;;;;;;;7.57;6.37;;;;;;;18.35;72.04;98851.81;5109145;28;20191;-81
2022/05/14 04:18:45;;;;;;;9.70;6.53;;;;;;;18.31;71.01;98861.69;5109640;28;20270;-81
2022/05/14 04:21:12;;;;;;;9.03;6.60;;;;;;;18.30;71.43;98869.66;5109283;28;20204;-81
2022/05/14 04:23:38;;;;;;;9.97;6.43;;;;;;;18.39;72.20;98857.50;5109357;28;20222;-81
2022/05/14 04:26:06;;;;;;;8.33;6.30;;;;;;;18.47;72.13;98865.22;5109184;28;20206;-81
2022/05/14 04:28:33;;;;;;;10.67;7.00;;;;;;;18.55;71.83;98858.22;5109190;28;20601;-82
2022/05/14 04:31:01;;;;;;;8.53;6.10;;;;;;;18.76;71.86;98865.47;5109028;28;20676;-81
2022/05/14 04:33:28;;;;;;;8.23;6.63;;;;;;;18.88;70.98;98857.31;5108885;28;20737;-81
2022/05/14 04:35:55;;;;;;;8.87;5.70;;;;;;;19.08;71.96;98858.50;5109265;28;20602;-81
2022/05/14 04:38:22;;;;;;;8.10;5.97;;;;;;;19.23;70.89;98864.56;5109316;28;20229;-81
2022/05/14 04:40:49;;;;;;;9.03;6.47;;;;;;;19.30;70.19;98861.28;5109304;28;20203;-82
2022/05/14 04:43:16;;;;;;;11.70;6.73;;;;;;;19.36;69.39;98870.97;5109338;28;20255;-81
2022/05/14 04:45:44;;;;;;;9.23;6.73;;;;;;;19.46;69.36;98866.38;5109344;28;20196;-81
2022/05/14 04:48:12;;;;;;;10.60;6.80;;;;;;;19.54;70.35;98874.06;5109273;28;20218;-79
2022/05/14 04:50:40;;;;;;;7.33;6.30;;;;;;;19.67;68.93;98876.94;5109128;28;20309;-80
2022/05/14 04:53:07;;;;;;;8.03;6.30;;;;;;;19.95;69.21;98880.75;5109477;28;20230;-80
2022/05/14 04:55:35;;;;;;;9.83;6.30;;;;;;;20.04;68.28;98885.69;5109376;28;20292;-81
2022/05/14 04:58:02;;;;;;;8.70;6.30;;;;;;;20.00;67.69;98884.41;5113073;28;20222;-81
2022/05/14 05:00:29;;;;;;;8.63;6.77;;;;;;;20.00;67.67;98883.63;5113086;28;20273;-80
2022/05/14 05:05:42;;;;;;;8.13;6.17;;;;;;;19.98;68.58;98896.75;5113083;28;20188;-80
2022/05/14 05:08:09;;;;;;;8.43;6.50;;;;;;;19.97;69.09;98899.53;5113311;28;20217;-80
2022/05/14 05:10:37;;;;;;;8.27;6.40;;;;;;;19.98;68.25;98901.94;5113110;28;20715;-80
2022/05/14 05:13:04;;;;;;;9.17;6.80;;;;;;;20.17;68.67;98899.84;5112512;28;20225;-80
2022/05/14 05:15:31;;;;;;;9.40;6.70;;;;;;;20.57;67.69;98890.88;5112729;28;20234;-81
2022/05/14 05:17:58;;;;;;;14.23;7.30;;;;;;;20.96;67.25;98890.53;5112664;28;20230;-81
2022/05/14 05:20:25;;;;;;;11.97;6.80;;;;;;;21.36;67.10;98891.00;5112710;28;20397;-81
2022/05/14 05:22:53;;;;;;;11.67;7.07;;;;;;;21.53;63.78;98888.97;5113073;28;20219;-80
2022/05/14 05:25:20;;;;;;;9.83;7.43;;;;;;;21.77;62.88;98881.75;5112770;28;20844;-80
2022/05/14 05:27:47;;;;;;;10.90;7.30;;;;;;;22.00;63.45;98892.75;5112614;28;20227;-80
2022/05/14 05:30:14;;;;;;;11.17;7.60;;;;;;;22.29;63.42;98896.97;5112935;28;20211;-80
2022/05/14 05:32:42;;;;;;;9.77;7.77;;;;;;;22.56;62.48;98897.13;5112553;28;20287;-81
2022/05/14 05:35:09;;;;;;;13.43;8.00;;;;;;;22.68;60.67;98890.38;5112727;28;20232;-80
2022/05/14 05:37:36;;;;;;;11.90;8.03;;;;;;;22.89;62.42;98899.06;5112422;28;20232;-80
2022/05/14 05:40:06;;;;;;;9.33;7.67;;;;;;;23.03;60.42;98903.38;5112427;28;20214;-80
2022/05/14 05:42:33;;;;;;;10.67;7.80;;;;;;;23.19;59.84;98908.25;5112044;28;20230;-81
2022/05/14 05:45:00;;;;;;;11.20;8.25;;;;;;;23.32;59.04;98911.88;5112246;28;20206;-80
2022/05/14 05:47:27;;;;;;;12.63;8.35;;;;;;;23.44;59.36;98912.91;5112050;28;20220;-80
2022/05/14 05:49:54;;;;;;;10.87;7.77;;;;;;;23.69;59.98;98908.72;5112171;28;20201;-81
2022/05/14 05:52:20;;;;;;;12.60;8.70;;;;;;;23.72;58.52;98907.56;5112196;28;20217;-80
2022/05/14 05:57:35;;;;;;;11.07;8.43;;;;;;;23.79;58.44;98912.78;5111782;28;20756;-80
2022/05/14 06:00:04;;;;;;;10.20;8.63;;;;;;;23.75;58.83;98912.38;5112303;28;20216;-80
2022/05/14 06:02:31;;;;;;;14.70;9.00;;;;;;;23.93;59.61;98919.59;5111888;28;20648;-80
2022/05/14 06:04:57;;;;;;;15.15;9.38;;;;;;;24.08;58.20;98924.63;5112025;28;20209;-81
2022/05/14 06:07:24;;;;;;;13.27;8.73;;;;;;;24.25;58.91;98922.41;5111095;28;20218;-80
2022/05/14 06:09:51;;;;;;;13.20;8.80;;;;;;;24.29;59.51;98929.63;5112280;28;20659;-79
2022/05/14 06:12:18;;;;;;;10.93;8.32;;;;;;;24.39;58.77;98935.22;5111742;27;20656;-81
2022/05/14 06:14:47;;;;;;;10.25;7.95;;;;;;;24.48;57.99;98942.91;5111752;28;20229;-80
2022/05/14 06:17:13;;;;;;;11.07;8.25;;;;;;;24.74;57.98;98942.03;5111969;28;20312;-80
2022/05/14 06:19:41;;;;;;;11.20;8.18;;;;;;;25.03;55.67;98946.75;5111699;28;20193;-81
2022/05/14 06:22:08;;;;;;;10.15;7.63;;;;;;;25.29;54.90;98958.13;5112077;28;20608;-80
2022/05/14 06:24:37;;;;;;;10.23;8.07;;;;;;;25.56;57.57;98952.75;5111645;27;20194;-79
2022/05/14 06:27:04;;;;;;;9.35;8.13;;;;;;;25.57;53.73;98941.25;5111314;28;20237;-80
2022/05/14 06:29:31;;;;;;;13.35;7.90;;;;;;;25.61;55.70;98942.44;5111528;28;20212;-80
2022/05/14 06:32:00;;;;;;;11.65;7.78;;;;;;;25.62;55.95;98950.06;5111387;28;20294;-80
2022/05/14 06:34:27;;;;;;;11.13;8.10;;;;;;;25.39;57.16;98961.06;5111252;28;20233;-80
2022/05/14 06:36:54;;;;;;;12.35;7.78;;;;;;;25.38;56.60;98962.09;5111156;27;20198;-80
2022/05/14 06:39:21;;;;;;;10.93;7.65;;;;;;;25.15;55.68;98967.84;5111205;28;20198;-79
2022/05/14 06:41:49;;;;;;;11.30;7.32;;;;;;;25.06;57.53;98971.69;5111398;28;20197;-79
2022/05/14 06:44:16;;;;;;;11.60;7.97;;;;;;;24.90;57.71;98980.81;5111217;28;20639;-80
2022/05/14 06:46:43;;;;;;;9.23;7.63;;;;;;;24.51;57.88;98985.09;5111070;28;20205;-79
2022/05/14 06:49:12;;;;;;;11.70;7.75;;;;;;;24.42;57.94;98981.06;5111257;28;20228;-79
2022/05/14 06:51:40;;;;;;;10.02;7.60;;;;;;;24.40;59.63;98983.06;5111036;28;20574;-80
2022/05/14 06:54:09;;;;;;;10.63;8.50;;;;;;;24.57;57.44;98989.50;5111120;28;20264;-79
2022/05/14 06:56:40;;;;;;;11.98;8.18;;;;;;;24.75;56.18;98990.69;5110965;28;20251;-79
2022/05/14 06:59:07;;;;;;;9.13;7.38;;;;;;;25.23;55.84;98987.75;5111117;28;20186;-80
2022/05/14 07:01:36;;;;;;;10.10;7.55;;;;;;;25.81;54.88;98979.78;5110617;28;20240;-80
2022/05/14 07:06:51;;;;;;;13.30;7.68;;;;;;;26.74;52.95;98979.00;5110548;28;20204;-80
2022/05/14 07:09:22;;;;;;;9.18;8.15;;;;;;;26.51;55.86;98984.09;5110731;28;20672;-80
2022/05/14 07:11:52;;;;;;;11.02;7.93;;;;;;;26.39;54.53;98995.25;5110486;28;20254;-80
2022/05/14 07:14:20;;;;;;;11.57;7.60;;;;;;;26.25;52.66;99001.63;5110759;28;20185;-80
2022/05/14 07:16:49;;;;;;;9.45;7.30;;;;;;;26.13;52.99;99001.53;5110504;28;20290;-79
2022/05/14 07:19:17;;;;;;;9.23;7.65;;;;;;;26.25;54.22;98995.59;5116110;28;20205;-83
2022/05/14 07:21:46;;;;;;;11.43;8.00;;;;;;;26.50;52.19;98999.03;5117596;28;20193;-81
2022/05/14 07:24:17;;;;;;;9.43;7.30;;;;;;;26.74;53.75;98997.38;5110826;28;20194;-80
2022/05/14 07:26:45;;;;;;;10.75;7.85;;;;;;;26.66;52.50;98997.66;5110467;28;20198;-79
2022/05/14 07:29:14;;;;;;;10.65;7.38;;;;;;;26.67;51.99;99001.88;5110404;28;20784;-80
2022/05/14 07:31:41;;;;;;;10.68;8.30;;;;;;;26.96;52.99;99007.41;5110270;28;20536;-80
2022/05/14 07:34:09;;;;;;;11.63;8.38;;;;;;;27.52;52.80;99001.91;5110194;28;20232;-80
2022/05/14 07:36:41;;;;;;;10.75;8.00;;;;;;;27.64;52.78;99007.19;5110022;28;20229;-82
2022/05/14 07:39:08;;;;;;;11.32;8.25;;;;;;;27.54;51.29;99009.56;5110427;28;20197;-79
2022/05/14 07:41:40;;;;;;;11.48;8.00;;;;;;;27.60;51.52;99011.28;5109814;28;20202;-79
2022/05/14 07:44:10;;;;;;;11.98;7.97;;;;;;;27.10;50.33;99009.66;5110124;28;20592;-80
2022/05/14 07:46:38;;;;;;;13.73;7.90;;;;;;;26.89;53.24;99011.94;5109800;28;20644;-79
2022/05/14 07:49:10;;;;;;;9.40;7.88;;;;;;;26.83;53.63;99014.41;5109670;28;20217;-79
2022/05/14 07:51:37;;;;;;;9.98;8.00;;;;;;;26.76;52.06;99011.06;5110075;28;20639;-80
2022/05/14 07:54:05;;;;;;;12.10;8.35;;;;;;;26.65;53.50;99011.78;5109724;28;20229;-79
2022/05/14 07:56:32;;;;;;;9.60;8.15;;;;;;;26.63;52.67;99016.44;5109541;28;20751;-79
2022/05/14 07:59:01;;;;;;;12.57;8.73;;;;;;;26.73;52.03;99014.09;5109558;28;20737;-79
2022/05/14 08:01:28;;;;;;;13.05;8.73;;;;;;;27.13;50.75;99020.75;5109712;28;20694;-79
2022/05/14 08:03:55;;;;;;;9.23;8.20;;;;;;;27.16;52.08;99020.34;5109541;28;20285;-80
2022/05/14 08:06:22;;;;;;;14.20;8.57;;;;;;;27.12;51.20;99025.22;5109695;28;20580;-80
2022/05/14 08:08:50;;;;;;;13.85;8.77;;;;;;;27.11;51.92;99028.84;5109644;28;20236;-81
2022/05/14 08:11:18;;;;;;;9.73;8.32;;;;;;;27.18;53.23;99026.97;5109308;28;20220;-80
2022/05/14 08:13:45;;;;;;;8.85;7.53;;;;;;;27.22;52.48;99028.13;5109779;28;20217;-80
2022/05/14 08:16:14;;;;;;;11.18;8.15;;;;;;;27.35;52.35;99026.38;5109618;28;20233;-79
2022/05/14 08:18:41;;;;;;;10.95;8.23;;;;;;;27.46;53.10;99029.06;5109739;28;20221;-80
2022/05/14 08:26:37;;;;;;;14.02;9.20;;;;;;;28.21;51.82;99028.59;5109380;28;20200;-80
2022/05/14 08:29:04;;;;;;;13.20;8.85;;;;;;;28.82;50.28;99020.50;5109088;28;20244;-80
2022/05/14 08:31:32;;;;;;;10.48;8.52;;;;;;;28.89;48.91;99026.44;5108657;28;20209;-80
2022/05/14 08:34:00;;;;;;;10.88;9.15;;;;;;;29.21;48.41;99028.69;5109226;28;20228;-81
2022/05/14 08:36:27;;;;;;;12.30;8.93;;;;;;;29.29;49.08;99036.19;5108917;28;20289;-80
2022/05/14 08:38:55;;;;;;;11.15;8.73;;;;;;;29.37;50.09;99024.50;5109198;28;20226;-81
2022/05/14 08:41:22;;;;;;;13.32;8.73;;;;;;;29.50;46.53;99032.94;5109071;28;20200;-81
2022/05/14 08:43:51;;;;;;;10.63;9.02;;;;;;;30.11;48.61;99019.25;5108905;28;20221;-81
2022/05/14 08:46:21;;;;;;;12.63;8.00;;;;;;;30.45;44.81;99023.44;5108904;28;20197;-81
2022/05/14 08:48:51;;;;;;;9.80;8.70;;;;;;;30.82;43.60;99020.28;5109074;28;20221;-81
2022/05/14 08:51:22;;;;;;;11.38;8.50;;;;;;;31.10;47.25;99015.88;5108892;28;20636;-81
2022/05/14 08:53:50;;;;;;;13.48;8.48;;;;;;;31.07;43.98;99014.53;5108917;28;20715;-81
2022/05/14 08:56:36;;;;;;;9.10;7.63;;;;;;;30.97;44.18;99018.88;5108679;28;20735;-81
2022/05/14 08:59:55;;;;;;;9.88;7.97;;;;;;;31.39;43.38;99020.97;5109116;28;20652;-81
2022/05/14 09:02:25;;;;;;;11.77;7.75;;;;;;;31.83;42.83;99016.38;5045473;28;20259;-81
2022/05/14 09:04:59;;;;;;;11.23;7.82;;;;;;;32.17;44.77;99016.94;5045808;28;20202;-81
2022/05/14 09:07:26;;;;;;;11.40;7.88;;;;;;;32.28;41.50;99019.63;5077871;28;20213;-81
2022/05/14 09:09:55;;;;;;;9.98;8.07;;;;;;;31.93;41.45;99016.47;5108926;28;20726;-82
2022/05/14 09:12:27;;;;;;;8.50;7.63;;;;;;;31.93;40.76;99016.47;5108628;28;20255;-81
2022/05/14 09:14:58;;;;;;;8.90;7.00;;;;;;;32.22;41.56;99014.31;5108886;28;20197;-81
2022/05/14 09:17:29;;;;;;;9.57;6.75;;;;;;;32.65;41.22;99017.78;5108752;28;20232;-81
2022/05/14 09:19:58;;;;;;;8.93;6.97;;;;;;;32.82;41.14;99009.66;5108722;28;20200;-81
2022/05/14 09:22:32;;;;;;;9.93;6.70;;;;;;;32.88;40.39;98999.88;5108661;28;20233;-81
2022/05/14 09:25:22;;;;;;;11.15;6.80;;;;;;;33.12;40.35;99019.56;5108656;28;20204;-81
2022/05/14 09:27:52;;;;;;;9.82;6.78;;;;;;;33.18;39.27;99009.00;5104406;28;20240;-82
2022/05/14 09:30:29;;;;;;;8.23;6.57;;;;;;;33.09;40.43;99017.44;5108670;28;20198;-81
2022/05/14 09:32:56;;;;;;;9.73;7.07;;;;;;;33.09;40.36;99012.16;5108578;28;20232;-81
2022/05/14 09:35:27;;;;;;;11.23;7.15;;;;;;;33.25;39.75;99025.44;5108772;28;20624;-81
2022/05/14 09:38:06;;;;;;;9.18;7.50;;;;;;;33.12;40.35;99014.28;5108955;28;20224;-81
2022/05/14 09:40:33;;;;;;;11.18;6.70;;;;;;;33.22;38.89;99012.72;5108465;28;20205;-82
2022/05/14 09:43:10;;;;;;;8.38;6.38;;;;;;;33.12;38.73;99011.63;5110290;28;20221;-82
2022/05/14 09:45:39;;;;;;;9.45;6.50;;;;;;;33.48;38.83;99014.38;5112325;28;20196;-81
2022/05/14 09:48:15;;;;;;;11.27;7.50;;;;;;;33.60;38.48;99011.50;5112527;28;20217;-82
2022/05/14 09:50:46;;;;;;;8.68;6.40;;;;;;;33.85;37.25;99012.56;5112201;28;20193;-81
2022/05/14 09:53:13;;;;;;;9.05;6.20;;;;;;;33.94;38.53;99011.75;5112304;27;20228;-81
2022/05/14 09:56:16;;;;;;;7.15;6.38;;;;;;;34.25;38.48;99014.44;5112289;28;20244;-81
2022/05/14 09:58:57;;;;;;;9.02;6.85;;;;;;;34.24;35.01;99007.53;5111952;28;20233;-81
2022/05/14 10:01:30;;;;;;;9.68;6.93;;;;;;;34.22;35.96;99007.00;5111933;28;20213;-82
2022/05/14 10:04:07;;;;;;;9.60;6.43;;;;;;;33.69;36.03;99003.81;5111768;28;20648;-82
2022/05/14 10:06:43;;;;;;;8.00;6.60;;;;;;;33.47;37.90;98999.50;5111670;28;20660;-81
2022/05/14 10:09:21;;;;;;;11.35;6.97;;;;;;;33.22;37.85;99007.41;5112049;28;20539;-79
2022/05/14 10:11:55;;;;;;;10.18;6.88;;;;;;;33.39;39.04;98997.38;5111716;28;20223;-82
2022/05/14 10:14:47;;;;;;;7.78;6.60;;;;;;;33.36;37.04;98997.91;5111690;28;20205;-81
2022/05/14 10:17:24;;;;;;;9.57;6.47;;;;;;;33.68;38.37;99002.22;5111495;28;20260;-81
2022/05/14 10:20:12;;;;;;;6.93;5.90;;;;;;;34.06;39.83;98995.59;5111793;28;20193;-83
2022/05/14 10:28:39;;;;;;;10.00;6.28;;;;;;;34.29;36.17;98994.22;5111303;28;20349;-81
2022/05/14 10:31:12;;;;;;;7.50;6.00;;;;;;;34.12;35.89;98996.38;5111597;28;20197;-82
2022/05/14 10:33:39;;;;;;;9.60;6.00;;;;;;;34.33;37.06;98992.66;5111405;28;20225;-81
2022/05/14 10:36:16;;;;;;;8.27;6.03;;;;;;;34.49;36.21;98991.53;5111253;28;20233;-82
2022/05/14 10:38:47;;;;;;;8.68;6.43;;;;;;;34.12;36.66;98986.56;5111346;28;20255;-82
2022/05/14 10:41:29;;;;;;;9.35;6.22;;;;;;;34.17;37.24;98985.78;5111130;28;20306;-82
2022/05/14 10:44:00;;;;;;;7.20;6.32;;;;;;;34.24;35.72;98991.63;5110984;28;20225;-81
2022/05/14 10:46:29;;;;;;;8.18;6.03;;;;;;;34.42;38.38;98985.72;5111083;28;20189;-82
2022/05/14 10:48:59;;;;;;;7.68;6.07;;;;;;;34.47;36.66;98983.06;5110995;28;20217;-81
2022/05/14 10:51:29;;;;;;;6.55;5.85;;;;;;;34.33;34.75;98991.84;5111377;28;20193;-82
2022/05/14 10:53:59;;;;;;;9.68;6.32;;;;;;;34.19;37.79;98983.66;5110674;28;20221;-81
2022/05/14 10:56:29;;;;;;;8.60;6.38;;;;;;;33.81;38.35;98985.78;5110854;28;20720;-81
2022/05/14 10:59:02;;;;;;;7.97;6.53;;;;;;;33.51;36.68;98982.06;5120922;28;20217;-81
2022/05/14 11:01:35;;;;;;;7.22;6.20;;;;;;;33.68;38.73;98981.78;5112826;28;20254;-82
2022/05/14 11:04:14;;;;;;;8.25;6.65;;;;;;;33.76;37.95;98973.31;5110743;28;20218;-82
2022/05/14 11:06:54;;;;;;;7.75;6.75;;;;;;;33.68;38.51;98976.50;5110775;28;20253;-81
2022/05/14 11:09:35;;;;;;;8.68;7.05;;;;;;;33.76;38.67;98973.31;5110789;28;20211;-82
2022/05/14 11:12:05;;;;;;;9.45;6.93;;;;;;;33.89;37.62;98972.00;5110918;28;20236;-81
2022/05/14 11:14:38;;;;;;;10.80;7.20;;;;;;;33.83;37.42;98975.69;5110452;28;20408;-81
2022/05/14 11:17:18;;;;;;;9.57;6.88;;;;;;;33.61;37.45;98969.88;5110689;28;20235;-81
2022/05/14 11:19:45;;;;;;;8.18;6.60;;;;;;;33.71;38.17;98964.56;5110393;28;20243;-82
2022/05/14 11:22:21;;;;;;;9.20;7.22;;;;;;;33.46;38.45;98963.47;5110568;28;20213;-81
2022/05/14 11:24:51;;;;;;;8.27;6.80;;;;;;;33.53;40.25;98958.72;5110723;28;20599;-81
2022/05/14 11:27:29;;;;;;;8.65;7.00;;;;;;;33.34;38.74;98966.38;5110672;28;20217;-81
2022/05/14 11:29:59;;;;;;;8.10;6.50;;;;;;;32.92;39.35;98958.56;5110495;28;20632;-81
2022/05/14 11:32:26;;;;;;;11.55;6.70;;;;;;;32.57;38.33;98954.72;5110431;28;20311;-82
2022/05/14 11:34:55;;;;;;;9.50;6.80;;;;;;;32.41;39.60;98950.41;5110112;28;20197;-82
2022/05/14 11:37:30;;;;;;;8.68;6.88;;;;;;;32.42;39.95;98949.34;5109680;28;20312;-82
2022/05/14 11:40:14;;;;;;;7.75;6.95;;;;;;;32.39;40.39;98950.63;5110263;28;20201;-81
2022/05/14 11:42:43;;;;;;;7.43;6.07;;;;;;;32.28;38.88;98949.00;5110303;28;20253;-82
2022/05/14 11:45:15;;;;;;;11.65;6.43;;;;;;;32.59;37.85;98939.38;5110009;28;20642;-81
2022/05/14 11:47:52;;;;;;;6.93;6.22;;;;;;;33.04;39.60;98945.91;5110219;28;20240;-82
2022/05/14 11:50:24;;;;;;;7.68;6.88;;;;;;;33.02;38.52;98940.09;5110020;28;20212;-82
2022/05/14 11:53:02;;;;;;;7.85;6.50;;;;;;;33.33;37.59;98932.97;5109986;28;20608;-83
2022/05/14 11:55:38;;;;;;;8.77;6.57;;;;;;;33.63;37.27;98920.84;5109668;28;20197;-83
2022/05/14 11:58:11;;;;;;;7.30;6.45;;;;;;;33.66;39.71;98924.78;5109997;28;20657;-82
2022/05/14 12:00:40;;;;;;;10.27;6.47;;;;;;;33.79;37.45;98913.66;5110279;28;20207;-82
2022/05/14 12:03:13;;;;;;;6.57;5.75;;;;;;;33.71;37.62;98916.81;5109686;28;20245;-82
2022/05/14 12:05:46;;;;;;;7.03;6.32;;;;;;;33.91;37.40;98919.44;5109084;28;20205;-82